ADDS METAR Data INFO
IDs: Format: Raw Decoded Include TAF

Data at: 1600 UTC 21 Sep 2017

METAR for:EBFS (Florennes(AB), --, BX)
Text:EBFS 211525Z 18006KT 9999 FEW040 BKN250 17/08 Q1019 BLU BLU
Temperature: 17.0°C ( 63°F)
Dewpoint: 8.0°C ( 46°F) [RH = 55%]
Pressure (altimeter):30.09 inches Hg (1019.0 mb)
Winds:from the S (180 degrees) at 7 MPH (6 knots; 3.1 m/s)
Visibility:6 or more sm (10+ km)
Ceiling:25000 feet AGL
Clouds: few clouds at 4000 feet AGL, broken clouds at 25000 feet AGL

TAF for:EBFS (Florennes(AB), --, BX) issued at 1541 UTC 21 Sep 2017
Text:TAF EBFS 211541Z 2119/2207 VRB03KT 9999 BKN250
Forecast period:1900 UTC 21 September 2017 to 0700 UTC 22 September 2017
Forecast type:FROM: standard forecast or significant change
Winds:variable direction winds at 3 MPH (3 knots; 1.5 m/s)
Visibility:6 or more sm (10+ km)
Ceiling:25000 feet AGL
Clouds: broken clouds at 25000 feet AGL
Text:TEMPO 2202/2206 4000 BR
Forecast period:0200 to 0600 UTC 22 September 2017
Forecast type:TEMPORARY: The following changes expected for less than half the time period
Visibility: 2.49 sm ( 4.01 km)
Clouds:missing
Weather:BR (mist)